createdAt,value
2022-12-25T00:03:53.411Z,147.30033
2022-12-25T00:08:55.165Z,146.63158
2022-12-25T00:13:56.804Z,148.65116
2022-12-25T00:18:58.510Z,148.65116
2022-12-25T00:23:59.972Z,147.30033
2022-12-25T00:29:01.691Z,148.65116
2022-12-25T00:34:03.834Z,147.30033
2022-12-25T00:39:06.262Z,142.70968
2022-12-25T00:44:08.400Z,146.63158
2022-12-25T00:49:10.150Z,145.96721
2022-12-25T00:54:12.181Z,141.4359
2022-12-25T00:59:14.188Z,145.96721
2022-12-25T01:04:16.773Z,146.63158
2022-12-25T01:09:18.938Z,149.33333
2022-12-25T01:14:20.881Z,156.41379
2022-12-25T01:19:27.804Z,152.10811
2022-12-25T01:24:32.286Z,149.33333
2022-12-25T01:29:34.004Z,152.10811
2022-12-25T01:34:36.163Z,152.10811
2022-12-25T01:39:37.668Z,148.65116
2022-12-25T01:44:40.079Z,152.81356
2022-12-25T01:49:42.884Z,151.40741
2022-12-25T01:54:45.935Z,154.9589
2022-12-25T01:59:47.716Z,144.65147
2022-12-25T02:04:49.558Z,139.55556
2022-12-25T02:09:51.509Z,155.68385
2022-12-25T02:14:55.384Z,170.47059
2022-12-25T02:19:59.114Z,171.30627
2022-12-25T02:25:01.377Z,164.78853
2022-12-25T02:30:04.205Z,167.18841
2022-12-25T02:35:05.830Z,167.18841
2022-12-25T02:40:07.328Z,171.30627
2022-12-25T02:45:09.464Z,177.33333
2022-12-25T02:50:13.054Z,172.14815
2022-12-25T02:55:16.282Z,174.71161
2022-12-25T03:00:21.411Z,171.30627
2022-12-25T03:05:23.786Z,166.38267
2022-12-25T03:10:26.750Z,152.81356
2022-12-25T03:15:29.992Z,152.81356
2022-12-25T03:20:32.738Z,145.96721
2022-12-25T03:25:34.754Z,157.88889
2022-12-25T03:30:36.599Z,164.78853
2022-12-25T03:35:39.465Z,170.47059
2022-12-25T03:40:41.294Z,180.92308
2022-12-25T03:45:44.215Z,191.38956
2022-12-25T03:50:46.919Z,187.47826
2022-12-25T03:55:49.569Z,187.47826
2022-12-25T04:00:52.175Z,182.75969
2022-12-25T04:05:53.953Z,180.01533
2022-12-25T04:10:55.675Z,177.33333
2022-12-25T04:15:58.293Z,180.01533
2022-12-25T04:21:00.275Z,169.64103
2022-12-25T04:26:01.809Z,172.99628
2022-12-25T04:31:03.372Z,170.47059
2022-12-25T04:36:05.087Z,170.47059
2022-12-25T04:41:06.990Z,165.58273
2022-12-25T04:46:08.735Z,169.64103
2022-12-25T04:51:10.299Z,160.90141
2022-12-25T04:56:11.827Z,147.30033
2022-12-25T05:01:13.419Z,145.96721
2022-12-25T05:06:15.398Z,141.4359
2022-12-25T05:11:17.269Z,137.10345
2022-12-25T05:16:19.330Z,134.12346
2022-12-25T05:21:21.572Z,139.55556
2022-12-25T05:26:23.060Z,147.30033
2022-12-25T05:31:25.301Z,153.52381
2022-12-25T05:36:27.433Z,157.14879
2022-12-25T05:41:34.003Z,163.21708
2022-12-25T05:46:36.409Z,154.9589
2022-12-25T05:51:38.256Z,160.14035
2022-12-25T05:56:39.959Z,162.43972
2022-12-25T06:01:41.897Z,176.45283
2022-12-25T06:06:43.735Z,185.56863
2022-12-25T06:11:45.368Z,190.4
2022-12-25T06:16:47.145Z,201.74059
2022-12-25T06:21:48.960Z,194.4065
2022-12-25T06:26:50.502Z,194.4065
2022-12-25T06:31:52.209Z,188.44444
2022-12-25T06:36:53.993Z,200.66667
2022-12-25T06:41:55.566Z,190.4
2022-12-25T06:46:57.379Z,196.45902
2022-12-25T06:51:59.058Z,225.27854
2022-12-25T06:57:00.589Z,227.87097
2022-12-25T07:02:02.152Z,199.60166
2022-12-25T07:07:08.786Z,217.77778
2022-12-25T07:12:11.307Z,244.4878
2022-12-25T07:17:13.386Z,244.4878
2022-12-25T07:22:15.609Z,243.02913
2022-12-25T07:27:17.135Z,250.46766
2022-12-25T07:32:18.621Z,224
2022-12-25T07:37:20.751Z,222.73303
2022-12-25T07:42:25.375Z,211.82609
2022-12-25T07:47:27.697Z,238.73684
2022-12-25T07:52:29.770Z,273.41176
2022-12-25T07:57:31.542Z,264.83333
2022-12-25T08:02:33.718Z,271.65957
2022-12-25T08:07:35.837Z,245.96078
2022-12-25T08:12:37.870Z,269.92593
2022-12-25T08:17:40.147Z,255.11111
2022-12-25T08:22:42.089Z,290.06742
2022-12-25T08:27:43.562Z,261.52577
2022-12-25T08:32:45.057Z,253.54774
2022-12-25T08:37:47.087Z,282.46154
2022-12-25T08:42:48.983Z,273.41176
2022-12-25T08:47:50.665Z,312.86228
2022-12-25T08:52:52.693Z,258.28571
2022-12-25T08:57:54.171Z,245.96078
2022-12-25T09:02:55.740Z,248.9505
2022-12-25T09:07:57.358Z,269.92593
2022-12-25T09:12:58.980Z,271.65957
2022-12-25T09:18:00.792Z,286.22222
2022-12-25T09:23:02.555Z,266.51309
2022-12-25T09:28:04.057Z,312.86228
2022-12-25T09:33:05.993Z,282.46154
2022-12-25T09:38:08.125Z,284.33149
2022-12-25T09:43:09.927Z,310.66667
2022-12-25T09:48:11.785Z,280.61202
2022-12-25T09:53:13.616Z,261.52577
2022-12-25T09:58:15.274Z,284.33149
2022-12-25T10:03:17.082Z,241.58454
2022-12-25T10:08:19.024Z,273.41176
2022-12-25T10:13:20.803Z,298.02299
2022-12-25T10:18:22.757Z,284.33149
2022-12-25T10:23:24.608Z,308.49704
2022-12-25T10:28:26.544Z,300.06936
2022-12-25T10:33:28.528Z,276.97297
2022-12-25T10:38:30.372Z,304.23392
2022-12-25T10:43:32.319Z,306.35294
2022-12-25T10:48:34.400Z,326.6087
2022-12-25T10:53:36.514Z,344
2022-12-25T10:58:38.309Z,284.33149
2022-12-25T11:03:40.455Z,264.83333
2022-12-25T11:08:42.436Z,357.42282
2022-12-25T11:13:44.404Z,363.04762
2022-12-25T11:18:46.450Z,354.66667
2022-12-25T11:23:48.268Z,326.6087
2022-12-25T11:28:50.208Z,396.94118
2022-12-25T11:33:52.014Z,440.77419
2022-12-25T11:38:54.032Z,414.22901
2022-12-25T11:43:55.551Z,410.66667
2022-12-25T11:48:57.331Z,306.35294
2022-12-25T11:53:59.185Z,390.37681
2022-12-25T11:59:00.660Z,368.82759
2022-12-25T12:04:02.365Z,371.77778
2022-12-25T12:09:03.951Z,354.66667
2022-12-25T12:14:05.419Z,363.04762
2022-12-25T12:19:07.411Z,341.41935
2022-12-25T12:24:08.947Z,310.66667
2022-12-25T12:29:10.407Z,306.35294
2022-12-25T12:34:12.129Z,298.02299
2022-12-25T12:39:14.070Z,286.22222
2022-12-25T12:44:15.821Z,286.22222
2022-12-25T12:49:17.854Z,321.91411
2022-12-25T12:54:19.806Z,321.91411
2022-12-25T12:59:21.603Z,308.49704
2022-12-25T13:04:23.451Z,290.06742
2022-12-25T13:09:25.151Z,284.33149
2022-12-25T13:14:26.914Z,273.41176
2022-12-25T13:19:28.751Z,244.4878
2022-12-25T13:24:30.637Z,263.17098
2022-12-25T13:29:32.628Z,248.9505
2022-12-25T13:34:34.313Z,259.89744
2022-12-25T13:39:36.171Z,259.89744
2022-12-25T13:44:37.866Z,238.73684
2022-12-25T13:49:39.854Z,259.89744
2022-12-25T13:54:41.878Z,304.23392
2022-12-25T13:59:43.915Z,284.33149
2022-12-25T14:04:45.698Z,273.41176
2022-12-25T14:09:47.399Z,280.61202
2022-12-25T14:14:48.856Z,276.97297
2022-12-25T14:19:50.510Z,258.28571
2022-12-25T14:24:51.952Z,235.94313
2022-12-25T14:29:53.449Z,248.9505
2022-12-25T14:34:54.952Z,243.02913
2022-12-25T14:39:56.555Z,256.69036
2022-12-25T14:44:58.364Z,255.11111
2022-12-25T14:50:00.137Z,269.92593
2022-12-25T14:55:01.966Z,256.69036
2022-12-25T15:00:03.554Z,207.24786
2022-12-25T15:05:05.137Z,205.01695
2022-12-25T15:10:57.572Z,199.60166
2022-12-25T15:16:01.120Z,188.44444
2022-12-25T15:21:02.770Z,186.51969
2022-12-25T15:26:04.676Z,188.44444
2022-12-25T15:31:06.317Z,182.75969
2022-12-25T15:36:08.026Z,179.1145
2022-12-25T15:41:09.631Z,172.99628
2022-12-25T15:46:11.352Z,175.57895
2022-12-25T15:51:13.067Z,191.38956
2022-12-25T15:56:14.716Z,199.60166
2022-12-25T16:01:16.650Z,198.54545
2022-12-25T16:06:18.204Z,200.66667
2022-12-25T16:11:19.925Z,192.3871
2022-12-25T16:16:21.587Z,197.49794
2022-12-25T16:21:23.714Z,188.44444
2022-12-25T16:26:25.701Z,199.60166
2022-12-25T16:31:27.263Z,181.83784
2022-12-25T16:36:28.812Z,165.58273
2022-12-25T16:41:30.389Z,170.47059
2022-12-25T16:46:32.030Z,176.45283
2022-12-25T16:51:33.766Z,179.1145
2022-12-25T16:56:35.467Z,175.57895
2022-12-25T17:01:37.259Z,172.14815
2022-12-25T17:06:38.918Z,169.64103
2022-12-25T17:11:40.732Z,167.18841
2022-12-25T17:16:42.390Z,158.63415
2022-12-25T17:21:44.424Z,150.02007
2022-12-25T17:26:46.245Z,151.40741
2022-12-25T17:31:48.193Z,156.41379
2022-12-25T17:36:49.707Z,146.63158
2022-12-25T17:41:51.425Z,153.52381
2022-12-25T17:46:53.076Z,161.66784
2022-12-25T17:51:54.860Z,160.14035
2022-12-25T17:56:56.393Z,157.14879
2022-12-25T18:01:58.047Z,155.68385
2022-12-25T18:06:59.710Z,192.3871
2022-12-25T18:12:01.566Z,177.33333
2022-12-25T18:17:03.146Z,205.01695
2022-12-25T18:22:04.823Z,206.12766
2022-12-25T18:27:06.439Z,162.43972
2022-12-25T18:32:08.396Z,146.63158
2022-12-25T18:37:10.415Z,173.85075
2022-12-25T18:42:12.025Z,200.66667
2022-12-25T18:47:13.964Z,201.74059
2022-12-25T18:52:48.032Z,199.60166
2022-12-25T18:57:53.780Z,184.625
2022-12-25T19:02:55.861Z,181.83784
2022-12-25T19:07:57.581Z,179.1145
2022-12-25T19:12:59.446Z,182.75969
2022-12-25T19:18:00.903Z,171.30627
2022-12-25T19:23:02.600Z,168
2022-12-25T19:28:04.476Z,178.22053
2022-12-25T19:33:09.018Z,191.38956
2022-12-25T19:38:12.591Z,184.625
2022-12-25T19:43:14.146Z,178.22053
2022-12-25T19:48:15.628Z,179.1145
2022-12-25T19:53:17.710Z,172.14815
2022-12-25T19:58:19.601Z,186.51969
2022-12-25T20:03:21.437Z,179.1145
2022-12-25T20:08:23.380Z,166.38267
2022-12-25T20:13:24.989Z,160.14035
2022-12-25T20:18:26.529Z,166.38267
2022-12-25T20:23:28.541Z,168.81752
2022-12-25T20:28:30.415Z,176.45283
2022-12-25T20:33:31.998Z,180.01533
2022-12-25T20:38:33.582Z,168
2022-12-25T20:43:38.936Z,166.38267
2022-12-25T20:48:45.167Z,164
2022-12-25T20:53:46.899Z,174.71161
2022-12-25T20:58:48.653Z,174.71161
2022-12-25T21:03:50.481Z,168.81752
2022-12-25T21:08:52.550Z,166.38267
2022-12-25T21:13:54.272Z,165.58273
2022-12-25T21:18:56.079Z,172.14815
2022-12-25T21:23:58.086Z,178.22053
2022-12-25T21:28:59.887Z,172.14815
2022-12-25T21:34:01.464Z,147.30033
2022-12-25T21:39:03.098Z,139.55556
2022-12-25T21:44:04.602Z,152.81356
2022-12-25T21:49:06.307Z,168
2022-12-25T21:54:08.012Z,160.90141
2022-12-25T21:59:09.935Z,164
2022-12-25T22:04:11.548Z,172.14815
2022-12-25T22:09:13.194Z,169.64103
2022-12-25T22:14:14.745Z,177.33333
2022-12-25T22:19:16.799Z,184.625
2022-12-25T22:24:19.001Z,186.51969
2022-12-25T22:29:20.832Z,181.83784
2022-12-25T22:34:22.630Z,184.625
2022-12-25T22:39:24.644Z,178.22053
2022-12-25T22:44:26.496Z,174.71161
2022-12-25T22:49:28.256Z,172.14815
2022-12-25T22:54:30.236Z,166.38267
2022-12-25T22:59:32.282Z,162.43972
2022-12-25T23:04:34.029Z,160.90141
2022-12-25T23:09:35.804Z,164.78853
2022-12-25T23:14:37.818Z,160.14035
2022-12-25T23:19:39.740Z,165.58273
2022-12-25T23:24:41.747Z,153.52381
2022-12-25T23:29:43.888Z,150.71141
2022-12-25T23:34:45.645Z,152.10811
2022-12-25T23:39:47.446Z,154.9589
2022-12-25T23:44:49.231Z,155.68385
2022-12-25T23:49:51.148Z,155.68385
2022-12-25T23:54:53.303Z,154.9589
2022-12-25T23:59:55.393Z,158.63415
